sensor_id;sensor_type;location;lat;lon;timestamp;P1;durP1;ratioP1;P2;durP2;ratioP2
65045;SDS011;54657;52.022;5.534;2022-12-01T00:00:55;29.02;;;14.60;;
65045;SDS011;54657;52.022;5.534;2022-12-01T00:03:21;28.83;;;15.88;;
65045;SDS011;54657;52.022;5.534;2022-12-01T00:05:47;29.13;;;16.05;;
65045;SDS011;54657;52.022;5.534;2022-12-01T00:08:21;26.75;;;14.48;;
65045;SDS011;54657;52.022;5.534;2022-12-01T00:10:46;26.60;;;15.13;;
65045;SDS011;54657;52.022;5.534;2022-12-01T00:13:12;23.40;;;13.68;;
65045;SDS011;54657;52.022;5.534;2022-12-01T00:15:37;24.27;;;14.18;;
65045;SDS011;54657;52.022;5.534;2022-12-01T00:18:03;28.15;;;15.45;;
65045;SDS011;54657;52.022;5.534;2022-12-01T00:20:32;26.33;;;13.48;;
65045;SDS011;54657;52.022;5.534;2022-12-01T00:22:59;27.35;;;14.05;;
65045;SDS011;54657;52.022;5.534;2022-12-01T00:25:25;26.88;;;14.82;;
65045;SDS011;54657;52.022;5.534;2022-12-01T00:27:55;27.20;;;14.55;;
65045;SDS011;54657;52.022;5.534;2022-12-01T00:30:21;31.08;;;14.05;;
65045;SDS011;54657;52.022;5.534;2022-12-01T00:32:50;27.70;;;14.23;;
65045;SDS011;54657;52.022;5.534;2022-12-01T00:35:16;27.13;;;14.68;;
65045;SDS011;54657;52.022;5.534;2022-12-01T00:37:41;25.27;;;14.40;;
65045;SDS011;54657;52.022;5.534;2022-12-01T00:40:08;25.88;;;14.38;;
65045;SDS011;54657;52.022;5.534;2022-12-01T00:42:34;24.38;;;13.98;;
65045;SDS011;54657;52.022;5.534;2022-12-01T00:44:59;27.25;;;14.73;;
65045;SDS011;54657;52.022;5.534;2022-12-01T00:47:25;31.67;;;15.90;;
65045;SDS011;54657;52.022;5.534;2022-12-01T00:49:50;24.95;;;13.68;;
65045;SDS011;54657;52.022;5.534;2022-12-01T00:52:16;25.98;;;14.95;;
65045;SDS011;54657;52.022;5.534;2022-12-01T00:54:43;27.92;;;15.07;;
65045;SDS011;54657;52.022;5.534;2022-12-01T00:57:09;27.27;;;14.82;;
65045;SDS011;54657;52.022;5.534;2022-12-01T00:59:35;26.75;;;14.70;;
65045;SDS011;54657;52.022;5.534;2022-12-01T01:02:01;26.73;;;14.57;;
65045;SDS011;54657;52.022;5.534;2022-12-01T01:04:28;26.70;;;14.77;;
65045;SDS011;54657;52.022;5.534;2022-12-01T01:06:54;24.33;;;14.18;;
65045;SDS011;54657;52.022;5.534;2022-12-01T01:09:20;25.25;;;14.32;;
65045;SDS011;54657;52.022;5.534;2022-12-01T01:11:46;26.10;;;14.73;;
65045;SDS011;54657;52.022;5.534;2022-12-01T01:14:12;28.60;;;15.80;;
65045;SDS011;54657;52.022;5.534;2022-12-01T01:16:37;24.95;;;14.90;;
65045;SDS011;54657;52.022;5.534;2022-12-01T01:19:03;27.77;;;15.18;;
65045;SDS011;54657;52.022;5.534;2022-12-01T01:21:28;25.67;;;14.73;;
65045;SDS011;54657;52.022;5.534;2022-12-01T01:23:54;26.67;;;14.73;;
65045;SDS011;54657;52.022;5.534;2022-12-01T01:26:21;27.70;;;15.95;;
65045;SDS011;54657;52.022;5.534;2022-12-01T01:28:55;31.65;;;16.73;;
65045;SDS011;54657;52.022;5.534;2022-12-01T01:31:23;29.17;;;15.48;;
65045;SDS011;54657;52.022;5.534;2022-12-01T01:33:50;30.20;;;16.48;;
65045;SDS011;54657;52.022;5.534;2022-12-01T01:36:16;29.08;;;15.30;;
65045;SDS011;54657;52.022;5.534;2022-12-01T01:38:43;31.27;;;16.27;;
65045;SDS011;54657;52.022;5.534;2022-12-01T01:41:09;29.27;;;16.83;;
65045;SDS011;54657;52.022;5.534;2022-12-01T01:46:13;31.65;;;16.08;;
65045;SDS011;54657;52.022;5.534;2022-12-01T01:48:41;34.17;;;17.20;;
65045;SDS011;54657;52.022;5.534;2022-12-01T01:51:11;31.15;;;17.20;;
65045;SDS011;54657;52.022;5.534;2022-12-01T01:53:39;29.88;;;15.93;;
65045;SDS011;54657;52.022;5.534;2022-12-01T01:56:07;31.92;;;17.45;;
65045;SDS011;54657;52.022;5.534;2022-12-01T01:58:33;27.98;;;15.82;;
65045;SDS011;54657;52.022;5.534;2022-12-01T02:01:00;31.63;;;16.23;;
65045;SDS011;54657;52.022;5.534;2022-12-01T02:03:25;33.03;;;18.17;;
65045;SDS011;54657;52.022;5.534;2022-12-01T02:05:53;31.45;;;17.05;;
65045;SDS011;54657;52.022;5.534;2022-12-01T02:08:19;30.48;;;16.63;;
65045;SDS011;54657;52.022;5.534;2022-12-01T02:13:32;32.25;;;15.60;;
65045;SDS011;54657;52.022;5.534;2022-12-01T02:24:49;30.67;;;15.57;;
65045;SDS011;54657;52.022;5.534;2022-12-01T02:28:26;31.65;;;16.00;;
65045;SDS011;54657;52.022;5.534;2022-12-01T02:30:55;27.52;;;14.85;;
65045;SDS011;54657;52.022;5.534;2022-12-01T02:36:36;29.90;;;16.20;;
65045;SDS011;54657;52.022;5.534;2022-12-01T02:41:48;29.70;;;15.73;;
65045;SDS011;54657;52.022;5.534;2022-12-01T02:44:18;31.42;;;16.95;;
65045;SDS011;54657;52.022;5.534;2022-12-01T02:46:56;35.03;;;17.33;;
65045;SDS011;54657;52.022;5.534;2022-12-01T02:49:29;34.55;;;16.10;;
65045;SDS011;54657;52.022;5.534;2022-12-01T02:51:59;34.08;;;16.13;;
65045;SDS011;54657;52.022;5.534;2022-12-01T02:54:29;34.00;;;16.13;;
65045;SDS011;54657;52.022;5.534;2022-12-01T02:56:55;32.92;;;16.48;;
65045;SDS011;54657;52.022;5.534;2022-12-01T02:59:21;33.10;;;17.02;;
65045;SDS011;54657;52.022;5.534;2022-12-01T03:02:02;42.47;;;17.77;;
65045;SDS011;54657;52.022;5.534;2022-12-01T03:18:40;34.88;;;16.58;;
65045;SDS011;54657;52.022;5.534;2022-12-01T03:21:32;33.17;;;16.85;;
65045;SDS011;54657;52.022;5.534;2022-12-01T03:24:06;32.40;;;17.15;;
65045;SDS011;54657;52.022;5.534;2022-12-01T03:26:45;36.65;;;17.40;;
65045;SDS011;54657;52.022;5.534;2022-12-01T03:29:15;35.10;;;17.08;;
65045;SDS011;54657;52.022;5.534;2022-12-01T03:31:49;31.17;;;15.98;;
65045;SDS011;54657;52.022;5.534;2022-12-01T03:36:58;32.65;;;15.73;;
65045;SDS011;54657;52.022;5.534;2022-12-01T03:39:29;33.97;;;15.63;;
65045;SDS011;54657;52.022;5.534;2022-12-01T03:41:59;34.80;;;16.77;;
65045;SDS011;54657;52.022;5.534;2022-12-01T03:44:34;33.33;;;16.38;;
65045;SDS011;54657;52.022;5.534;2022-12-01T03:47:04;33.47;;;15.75;;
65045;SDS011;54657;52.022;5.534;2022-12-01T03:49:31;35.85;;;17.13;;
65045;SDS011;54657;52.022;5.534;2022-12-01T03:54:55;34.85;;;16.35;;
65045;SDS011;54657;52.022;5.534;2022-12-01T03:57:27;36.95;;;16.98;;
65045;SDS011;54657;52.022;5.534;2022-12-01T03:59:56;36.80;;;17.02;;
65045;SDS011;54657;52.022;5.534;2022-12-01T04:02:22;30.17;;;15.45;;
65045;SDS011;54657;52.022;5.534;2022-12-01T04:04:51;33.20;;;15.48;;
65045;SDS011;54657;52.022;5.534;2022-12-01T04:07:17;36.25;;;17.27;;
65045;SDS011;54657;52.022;5.534;2022-12-01T04:09:43;32.33;;;16.75;;
65045;SDS011;54657;52.022;5.534;2022-12-01T04:12:10;33.88;;;16.80;;
65045;SDS011;54657;52.022;5.534;2022-12-01T04:15:07;30.33;;;15.48;;
65045;SDS011;54657;52.022;5.534;2022-12-01T04:17:36;33.70;;;17.15;;
65045;SDS011;54657;52.022;5.534;2022-12-01T04:20:15;39.00;;;16.10;;
65045;SDS011;54657;52.022;5.534;2022-12-01T04:22:41;36.20;;;16.63;;
65045;SDS011;54657;52.022;5.534;2022-12-01T04:25:07;35.65;;;16.55;;
65045;SDS011;54657;52.022;5.534;2022-12-01T04:27:34;33.28;;;16.73;;
65045;SDS011;54657;52.022;5.534;2022-12-01T04:30:00;34.60;;;16.77;;
65045;SDS011;54657;52.022;5.534;2022-12-01T04:32:26;31.98;;;15.75;;
65045;SDS011;54657;52.022;5.534;2022-12-01T04:34:51;31.52;;;15.88;;
65045;SDS011;54657;52.022;5.534;2022-12-01T04:37:17;34.33;;;16.58;;
65045;SDS011;54657;52.022;5.534;2022-12-01T04:39:44;34.63;;;15.93;;
65045;SDS011;54657;52.022;5.534;2022-12-01T04:42:09;34.00;;;16.27;;
65045;SDS011;54657;52.022;5.534;2022-12-01T04:44:35;30.20;;;14.98;;
65045;SDS011;54657;52.022;5.534;2022-12-01T04:47:04;32.20;;;16.27;;
65045;SDS011;54657;52.022;5.534;2022-12-01T04:49:30;32.92;;;16.17;;
65045;SDS011;54657;52.022;5.534;2022-12-01T04:51:56;35.75;;;15.70;;
65045;SDS011;54657;52.022;5.534;2022-12-01T04:54:22;31.65;;;15.98;;
65045;SDS011;54657;52.022;5.534;2022-12-01T04:56:47;29.67;;;15.73;;
65045;SDS011;54657;52.022;5.534;2022-12-01T04:59:13;35.03;;;16.42;;
65045;SDS011;54657;52.022;5.534;2022-12-01T05:01:39;29.15;;;15.35;;
65045;SDS011;54657;52.022;5.534;2022-12-01T05:04:04;33.65;;;16.23;;
65045;SDS011;54657;52.022;5.534;2022-12-01T05:06:30;32.08;;;15.68;;
65045;SDS011;54657;52.022;5.534;2022-12-01T05:08:57;30.13;;;15.63;;
65045;SDS011;54657;52.022;5.534;2022-12-01T05:11:26;30.48;;;15.77;;
65045;SDS011;54657;52.022;5.534;2022-12-01T05:13:52;31.75;;;16.13;;
65045;SDS011;54657;52.022;5.534;2022-12-01T05:16:19;27.33;;;15.48;;
65045;SDS011;54657;52.022;5.534;2022-12-01T05:18:54;34.10;;;17.08;;
65045;SDS011;54657;52.022;5.534;2022-12-01T05:21:41;31.55;;;15.00;;
65045;SDS011;54657;52.022;5.534;2022-12-01T05:24:08;29.40;;;15.60;;
65045;SDS011;54657;52.022;5.534;2022-12-01T05:26:34;30.65;;;16.13;;
65045;SDS011;54657;52.022;5.534;2022-12-01T05:29:00;30.77;;;15.35;;
65045;SDS011;54657;52.022;5.534;2022-12-01T05:31:25;33.72;;;16.60;;
65045;SDS011;54657;52.022;5.534;2022-12-01T05:34:00;30.98;;;15.60;;
65045;SDS011;54657;52.022;5.534;2022-12-01T05:36:38;33.50;;;16.55;;
65045;SDS011;54657;52.022;5.534;2022-12-01T05:39:04;28.20;;;15.75;;
65045;SDS011;54657;52.022;5.534;2022-12-01T05:41:29;32.30;;;15.40;;
65045;SDS011;54657;52.022;5.534;2022-12-01T05:43:55;35.25;;;15.43;;
65045;SDS011;54657;52.022;5.534;2022-12-01T05:46:21;32.85;;;16.13;;
65045;SDS011;54657;52.022;5.534;2022-12-01T05:48:46;35.42;;;15.40;;
65045;SDS011;54657;52.022;5.534;2022-12-01T05:51:13;31.20;;;15.07;;
65045;SDS011;54657;52.022;5.534;2022-12-01T05:53:39;35.53;;;17.15;;
65045;SDS011;54657;52.022;5.534;2022-12-01T05:56:05;29.55;;;15.80;;
65045;SDS011;54657;52.022;5.534;2022-12-01T05:58:32;33.72;;;17.10;;
65045;SDS011;54657;52.022;5.534;2022-12-01T06:00:57;36.60;;;17.40;;
65045;SDS011;54657;52.022;5.534;2022-12-01T06:03:23;35.60;;;17.13;;
65045;SDS011;54657;52.022;5.534;2022-12-01T06:05:49;36.30;;;17.27;;
65045;SDS011;54657;52.022;5.534;2022-12-01T06:08:15;36.15;;;16.05;;
65045;SDS011;54657;52.022;5.534;2022-12-01T06:10:41;36.03;;;16.52;;
65045;SDS011;54657;52.022;5.534;2022-12-01T06:13:08;39.83;;;17.77;;
65045;SDS011;54657;52.022;5.534;2022-12-01T06:15:34;35.08;;;16.58;;
65045;SDS011;54657;52.022;5.534;2022-12-01T06:18:00;35.47;;;16.30;;
65045;SDS011;54657;52.022;5.534;2022-12-01T06:20:25;35.28;;;16.98;;
65045;SDS011;54657;52.022;5.534;2022-12-01T06:22:51;38.08;;;18.52;;
65045;SDS011;54657;52.022;5.534;2022-12-01T06:25:16;36.95;;;16.90;;
65045;SDS011;54657;52.022;5.534;2022-12-01T06:27:42;36.35;;;17.33;;
65045;SDS011;54657;52.022;5.534;2022-12-01T06:30:08;42.22;;;18.73;;
65045;SDS011;54657;52.022;5.534;2022-12-01T06:32:34;37.05;;;15.98;;
65045;SDS011;54657;52.022;5.534;2022-12-01T06:34:59;36.15;;;16.42;;
65045;SDS011;54657;52.022;5.534;2022-12-01T06:37:26;40.08;;;17.33;;
65045;SDS011;54657;52.022;5.534;2022-12-01T06:39:51;35.65;;;15.80;;
65045;SDS011;54657;52.022;5.534;2022-12-01T06:42:17;34.13;;;16.98;;
65045;SDS011;54657;52.022;5.534;2022-12-01T06:44:42;37.05;;;15.57;;
65045;SDS011;54657;52.022;5.534;2022-12-01T06:47:08;33.63;;;16.10;;
65045;SDS011;54657;52.022;5.534;2022-12-01T06:49:34;34.58;;;16.63;;
65045;SDS011;54657;52.022;5.534;2022-12-01T06:51:59;32.35;;;15.65;;
65045;SDS011;54657;52.022;5.534;2022-12-01T06:54:25;38.00;;;15.68;;
65045;SDS011;54657;52.022;5.534;2022-12-01T06:56:51;36.50;;;16.98;;
65045;SDS011;54657;52.022;5.534;2022-12-01T06:59:16;33.45;;;15.27;;
65045;SDS011;54657;52.022;5.534;2022-12-01T07:01:43;34.60;;;16.05;;
65045;SDS011;54657;52.022;5.534;2022-12-01T07:04:09;32.15;;;15.07;;
65045;SDS011;54657;52.022;5.534;2022-12-01T07:06:35;36.40;;;16.02;;
65045;SDS011;54657;52.022;5.534;2022-12-01T07:09:03;36.17;;;16.30;;
65045;SDS011;54657;52.022;5.534;2022-12-01T07:11:29;34.92;;;15.68;;
65045;SDS011;54657;52.022;5.534;2022-12-01T07:13:56;35.45;;;16.63;;
65045;SDS011;54657;52.022;5.534;2022-12-01T07:16:22;41.40;;;16.83;;
65045;SDS011;54657;52.022;5.534;2022-12-01T07:18:48;39.58;;;16.42;;
65045;SDS011;54657;52.022;5.534;2022-12-01T07:21:14;35.92;;;15.77;;
65045;SDS011;54657;52.022;5.534;2022-12-01T07:23:40;39.85;;;17.23;;
65045;SDS011;54657;52.022;5.534;2022-12-01T07:26:08;34.38;;;15.55;;
65045;SDS011;54657;52.022;5.534;2022-12-01T07:28:36;36.25;;;16.30;;
65045;SDS011;54657;52.022;5.534;2022-12-01T07:31:02;33.72;;;15.38;;
65045;SDS011;54657;52.022;5.534;2022-12-01T07:33:30;37.13;;;15.77;;
65045;SDS011;54657;52.022;5.534;2022-12-01T07:35:56;34.53;;;16.15;;
65045;SDS011;54657;52.022;5.534;2022-12-01T07:38:21;38.20;;;16.15;;
65045;SDS011;54657;52.022;5.534;2022-12-01T07:40:47;37.03;;;17.02;;
65045;SDS011;54657;52.022;5.534;2022-12-01T07:43:13;34.17;;;15.93;;
65045;SDS011;54657;52.022;5.534;2022-12-01T07:45:38;35.47;;;15.90;;
65045;SDS011;54657;52.022;5.534;2022-12-01T07:48:04;35.72;;;15.32;;
65045;SDS011;54657;52.022;5.534;2022-12-01T07:50:30;35.40;;;16.23;;
65045;SDS011;54657;52.022;5.534;2022-12-01T07:52:55;39.15;;;16.15;;
65045;SDS011;54657;52.022;5.534;2022-12-01T07:55:21;33.30;;;16.92;;
65045;SDS011;54657;52.022;5.534;2022-12-01T07:57:46;39.33;;;15.40;;
65045;SDS011;54657;52.022;5.534;2022-12-01T08:00:12;38.13;;;17.20;;
65045;SDS011;54657;52.022;5.534;2022-12-01T08:02:38;37.88;;;17.00;;
65045;SDS011;54657;52.022;5.534;2022-12-01T08:05:04;38.50;;;16.88;;
65045;SDS011;54657;52.022;5.534;2022-12-01T08:07:29;40.63;;;17.85;;
65045;SDS011;54657;52.022;5.534;2022-12-01T08:09:55;38.08;;;17.27;;
65045;SDS011;54657;52.022;5.534;2022-12-01T08:12:20;40.45;;;18.15;;
65045;SDS011;54657;52.022;5.534;2022-12-01T08:14:46;35.58;;;16.98;;
65045;SDS011;54657;52.022;5.534;2022-12-01T08:17:11;41.72;;;18.48;;
65045;SDS011;54657;52.022;5.534;2022-12-01T08:19:37;35.70;;;16.85;;
65045;SDS011;54657;52.022;5.534;2022-12-01T08:22:02;37.33;;;17.00;;
65045;SDS011;54657;52.022;5.534;2022-12-01T08:24:28;35.45;;;17.00;;
65045;SDS011;54657;52.022;5.534;2022-12-01T08:26:54;37.50;;;17.17;;
65045;SDS011;54657;52.022;5.534;2022-12-01T08:29:19;38.92;;;17.00;;
65045;SDS011;54657;52.022;5.534;2022-12-01T08:31:45;40.72;;;18.15;;
65045;SDS011;54657;52.022;5.534;2022-12-01T08:34:10;36.20;;;17.88;;
65045;SDS011;54657;52.022;5.534;2022-12-01T08:36:36;39.58;;;18.48;;
65045;SDS011;54657;52.022;5.534;2022-12-01T08:39:02;38.05;;;17.55;;
65045;SDS011;54657;52.022;5.534;2022-12-01T08:41:27;43.80;;;18.30;;
65045;SDS011;54657;52.022;5.534;2022-12-01T08:43:55;46.90;;;18.75;;
65045;SDS011;54657;52.022;5.534;2022-12-01T08:46:23;43.65;;;17.95;;
65045;SDS011;54657;52.022;5.534;2022-12-01T08:48:49;40.38;;;17.90;;
65045;SDS011;54657;52.022;5.534;2022-12-01T08:51:16;39.22;;;17.52;;
65045;SDS011;54657;52.022;5.534;2022-12-01T08:53:43;44.60;;;18.50;;
65045;SDS011;54657;52.022;5.534;2022-12-01T08:58:52;42.05;;;18.40;;
65045;SDS011;54657;52.022;5.534;2022-12-01T09:01:18;41.75;;;19.42;;
65045;SDS011;54657;52.022;5.534;2022-12-01T09:03:44;48.60;;;19.88;;
65045;SDS011;54657;52.022;5.534;2022-12-01T09:06:14;47.40;;;19.98;;
65045;SDS011;54657;52.022;5.534;2022-12-01T09:08:41;42.50;;;18.63;;
65045;SDS011;54657;52.022;5.534;2022-12-01T09:11:11;45.03;;;19.00;;
65045;SDS011;54657;52.022;5.534;2022-12-01T09:13:39;47.75;;;20.25;;
65045;SDS011;54657;52.022;5.534;2022-12-01T09:16:07;44.30;;;19.83;;
65045;SDS011;54657;52.022;5.534;2022-12-01T09:18:35;48.80;;;21.35;;
65045;SDS011;54657;52.022;5.534;2022-12-01T09:21:15;46.67;;;20.73;;
65045;SDS011;54657;52.022;5.534;2022-12-01T09:23:40;44.97;;;20.42;;
65045;SDS011;54657;52.022;5.534;2022-12-01T09:26:06;42.80;;;21.33;;
65045;SDS011;54657;52.022;5.534;2022-12-01T09:28:33;46.65;;;19.95;;
65045;SDS011;54657;52.022;5.534;2022-12-01T09:31:06;41.35;;;20.50;;
65045;SDS011;54657;52.022;5.534;2022-12-01T09:33:33;47.45;;;20.17;;
65045;SDS011;54657;52.022;5.534;2022-12-01T09:35:59;47.08;;;21.65;;
65045;SDS011;54657;52.022;5.534;2022-12-01T09:38:27;42.95;;;20.15;;
65045;SDS011;54657;52.022;5.534;2022-12-01T09:40:53;45.10;;;20.23;;
65045;SDS011;54657;52.022;5.534;2022-12-01T09:43:21;45.08;;;21.30;;
65045;SDS011;54657;52.022;5.534;2022-12-01T09:45:53;46.50;;;20.27;;
65045;SDS011;54657;52.022;5.534;2022-12-01T09:48:32;51.15;;;19.42;;
65045;SDS011;54657;52.022;5.534;2022-12-01T09:51:28;42.95;;;20.95;;
65045;SDS011;54657;52.022;5.534;2022-12-01T09:53:53;38.22;;;18.92;;
65045;SDS011;54657;52.022;5.534;2022-12-01T09:56:37;43.78;;;19.48;;
65045;SDS011;54657;52.022;5.534;2022-12-01T09:59:10;45.65;;;19.73;;
65045;SDS011;54657;52.022;5.534;2022-12-01T10:01:42;46.10;;;20.60;;
65045;SDS011;54657;52.022;5.534;2022-12-01T10:04:55;45.85;;;21.67;;
65045;SDS011;54657;52.022;5.534;2022-12-01T10:07:16;39.00;;;20.40;;
65045;SDS011;54657;52.022;5.534;2022-12-01T10:09:48;44.90;;;21.63;;
65045;SDS011;54657;52.022;5.534;2022-12-01T10:12:20;47.72;;;21.65;;
65045;SDS011;54657;52.022;5.534;2022-12-01T10:14:51;43.17;;;20.92;;
65045;SDS011;54657;52.022;5.534;2022-12-01T10:17:40;43.90;;;21.38;;
65045;SDS011;54657;52.022;5.534;2022-12-01T10:20:27;49.50;;;22.05;;
65045;SDS011;54657;52.022;5.534;2022-12-01T10:25:50;51.55;;;23.13;;
65045;SDS011;54657;52.022;5.534;2022-12-01T10:31:50;45.58;;;22.83;;
65045;SDS011;54657;52.022;5.534;2022-12-01T10:34:33;46.60;;;22.75;;
65045;SDS011;54657;52.022;5.534;2022-12-01T10:37:02;45.70;;;23.33;;
65045;SDS011;54657;52.022;5.534;2022-12-01T10:39:38;49.22;;;21.63;;
65045;SDS011;54657;52.022;5.534;2022-12-01T10:42:12;47.47;;;22.25;;
65045;SDS011;54657;52.022;5.534;2022-12-01T10:44:43;48.88;;;22.25;;
65045;SDS011;54657;52.022;5.534;2022-12-01T10:47:23;50.65;;;21.70;;
65045;SDS011;54657;52.022;5.534;2022-12-01T10:49:50;42.25;;;22.48;;
65045;SDS011;54657;52.022;5.534;2022-12-01T10:54:53;46.65;;;22.73;;
65045;SDS011;54657;52.022;5.534;2022-12-01T10:57:19;53.13;;;23.95;;
65045;SDS011;54657;52.022;5.534;2022-12-01T11:02:19;43.25;;;20.75;;
65045;SDS011;54657;52.022;5.534;2022-12-01T11:05:03;47.17;;;23.05;;
65045;SDS011;54657;52.022;5.534;2022-12-01T11:07:32;42.70;;;21.40;;
65045;SDS011;54657;52.022;5.534;2022-12-01T11:10:22;44.58;;;21.17;;
65045;SDS011;54657;52.022;5.534;2022-12-01T11:12:52;45.50;;;21.50;;
65045;SDS011;54657;52.022;5.534;2022-12-01T11:15:37;41.70;;;21.00;;
65045;SDS011;54657;52.022;5.534;2022-12-01T11:18:08;38.78;;;19.45;;
65045;SDS011;54657;52.022;5.534;2022-12-01T11:23:37;44.00;;;20.98;;
65045;SDS011;54657;52.022;5.534;2022-12-01T11:34:15;45.17;;;21.75;;
65045;SDS011;54657;52.022;5.534;2022-12-01T11:36:45;42.70;;;20.88;;
65045;SDS011;54657;52.022;5.534;2022-12-01T11:39:33;41.75;;;20.40;;
65045;SDS011;54657;52.022;5.534;2022-12-01T11:42:03;41.45;;;20.08;;
65045;SDS011;54657;52.022;5.534;2022-12-01T11:44:48;39.42;;;18.85;;
65045;SDS011;54657;52.022;5.534;2022-12-01T11:47:29;40.85;;;20.02;;
65045;SDS011;54657;52.022;5.534;2022-12-01T11:50:00;43.58;;;21.38;;
65045;SDS011;54657;52.022;5.534;2022-12-01T11:54:55;40.40;;;19.90;;
65045;SDS011;54657;52.022;5.534;2022-12-01T11:57:22;39.78;;;20.65;;
65045;SDS011;54657;52.022;5.534;2022-12-01T11:59:47;41.75;;;19.63;;
65045;SDS011;54657;52.022;5.534;2022-12-01T12:10:15;44.80;;;20.77;;
65045;SDS011;54657;52.022;5.534;2022-12-01T12:15:47;46.92;;;20.15;;
65045;SDS011;54657;52.022;5.534;2022-12-01T12:21:40;38.45;;;19.65;;
65045;SDS011;54657;52.022;5.534;2022-12-01T12:27:05;38.20;;;20.05;;
65045;SDS011;54657;52.022;5.534;2022-12-01T12:34:53;38.72;;;18.75;;
65045;SDS011;54657;52.022;5.534;2022-12-01T12:37:42;36.22;;;18.83;;
65045;SDS011;54657;52.022;5.534;2022-12-01T12:53:35;32.90;;;16.73;;
65045;SDS011;54657;52.022;5.534;2022-12-01T12:56:06;33.38;;;18.48;;
65045;SDS011;54657;52.022;5.534;2022-12-01T12:58:46;32.30;;;17.75;;
65045;SDS011;54657;52.022;5.534;2022-12-01T13:01:21;38.58;;;18.30;;
65045;SDS011;54657;52.022;5.534;2022-12-01T13:03:56;36.92;;;18.60;;
65045;SDS011;54657;52.022;5.534;2022-12-01T13:06:36;32.78;;;17.73;;
65045;SDS011;54657;52.022;5.534;2022-12-01T13:09:08;34.42;;;18.75;;
65045;SDS011;54657;52.022;5.534;2022-12-01T13:11:51;35.63;;;17.88;;
65045;SDS011;54657;52.022;5.534;2022-12-01T13:14:25;30.15;;;16.83;;
65045;SDS011;54657;52.022;5.534;2022-12-01T13:16:57;30.88;;;17.27;;
65045;SDS011;54657;52.022;5.534;2022-12-01T13:19:30;28.90;;;16.10;;
65045;SDS011;54657;52.022;5.534;2022-12-01T13:21:59;30.45;;;16.50;;
65045;SDS011;54657;52.022;5.534;2022-12-01T13:24:29;36.72;;;17.92;;
65045;SDS011;54657;52.022;5.534;2022-12-01T13:29:43;31.38;;;16.15;;
65045;SDS011;54657;52.022;5.534;2022-12-01T13:32:25;29.15;;;15.85;;
65045;SDS011;54657;52.022;5.534;2022-12-01T13:34:54;28.70;;;15.85;;
65045;SDS011;54657;52.022;5.534;2022-12-01T13:37:27;31.48;;;16.83;;
65045;SDS011;54657;52.022;5.534;2022-12-01T13:39:55;32.10;;;17.35;;
65045;SDS011;54657;52.022;5.534;2022-12-01T13:43:15;33.58;;;17.63;;
65045;SDS011;54657;52.022;5.534;2022-12-01T13:45:44;33.92;;;17.35;;
65045;SDS011;54657;52.022;5.534;2022-12-01T13:51:01;35.35;;;17.52;;
65045;SDS011;54657;52.022;5.534;2022-12-01T13:58:49;31.83;;;16.80;;
65045;SDS011;54657;52.022;5.534;2022-12-01T14:09:32;34.92;;;18.67;;
65045;SDS011;54657;52.022;5.534;2022-12-01T14:14:39;32.05;;;16.95;;
65045;SDS011;54657;52.022;5.534;2022-12-01T14:17:22;34.60;;;19.13;;
65045;SDS011;54657;52.022;5.534;2022-12-01T14:19:51;37.40;;;18.48;;
65045;SDS011;54657;52.022;5.534;2022-12-01T14:22:30;33.65;;;18.42;;
65045;SDS011;54657;52.022;5.534;2022-12-01T14:27:44;35.75;;;17.85;;
65045;SDS011;54657;52.022;5.534;2022-12-01T14:38:48;32.97;;;17.73;;
65045;SDS011;54657;52.022;5.534;2022-12-01T14:43:59;34.85;;;17.65;;
65045;SDS011;54657;52.022;5.534;2022-12-01T14:46:40;32.67;;;16.90;;
65045;SDS011;54657;52.022;5.534;2022-12-01T14:49:13;33.33;;;18.33;;
65045;SDS011;54657;52.022;5.534;2022-12-01T14:51:48;33.40;;;17.98;;
65045;SDS011;54657;52.022;5.534;2022-12-01T14:54:23;34.65;;;17.70;;
65045;SDS011;54657;52.022;5.534;2022-12-01T14:56:54;33.65;;;18.13;;
65045;SDS011;54657;52.022;5.534;2022-12-01T14:59:24;35.85;;;17.65;;
65045;SDS011;54657;52.022;5.534;2022-12-01T15:01:55;30.63;;;16.73;;
65045;SDS011;54657;52.022;5.534;2022-12-01T15:07:41;34.97;;;18.48;;
65045;SDS011;54657;52.022;5.534;2022-12-01T15:13:10;31.85;;;17.40;;
65045;SDS011;54657;52.022;5.534;2022-12-01T15:15:59;34.55;;;17.75;;
65045;SDS011;54657;52.022;5.534;2022-12-01T15:18:31;31.83;;;17.17;;
65045;SDS011;54657;52.022;5.534;2022-12-01T15:21:11;37.00;;;18.90;;
65045;SDS011;54657;52.022;5.534;2022-12-01T15:26:32;35.17;;;17.15;;
65045;SDS011;54657;52.022;5.534;2022-12-01T15:29:03;31.90;;;17.10;;
65045;SDS011;54657;52.022;5.534;2022-12-01T15:31:39;34.38;;;18.25;;
65045;SDS011;54657;52.022;5.534;2022-12-01T15:34:08;30.98;;;16.98;;
65045;SDS011;54657;52.022;5.534;2022-12-01T15:36:47;34.30;;;17.27;;
65045;SDS011;54657;52.022;5.534;2022-12-01T15:39:17;34.55;;;18.67;;
65045;SDS011;54657;52.022;5.534;2022-12-01T15:41:46;32.22;;;17.75;;
65045;SDS011;54657;52.022;5.534;2022-12-01T15:44:25;35.38;;;17.30;;
65045;SDS011;54657;52.022;5.534;2022-12-01T15:46:52;36.70;;;17.83;;
65045;SDS011;54657;52.022;5.534;2022-12-01T15:49:28;34.95;;;16.90;;
65045;SDS011;54657;52.022;5.534;2022-12-01T15:55:44;33.28;;;16.30;;
65045;SDS011;54657;52.022;5.534;2022-12-01T15:58:25;33.17;;;17.92;;
65045;SDS011;54657;52.022;5.534;2022-12-01T16:01:58;34.35;;;16.30;;
65045;SDS011;54657;52.022;5.534;2022-12-01T16:04:41;31.20;;;16.67;;
65045;SDS011;54657;52.022;5.534;2022-12-01T16:07:08;32.08;;;16.48;;
65045;SDS011;54657;52.022;5.534;2022-12-01T16:12:11;34.47;;;17.05;;
65045;SDS011;54657;52.022;5.534;2022-12-01T16:21:30;34.95;;;18.02;;
65045;SDS011;54657;52.022;5.534;2022-12-01T16:24:06;33.58;;;17.40;;
65045;SDS011;54657;52.022;5.534;2022-12-01T16:26:48;31.77;;;17.67;;
65045;SDS011;54657;52.022;5.534;2022-12-01T16:29:19;32.83;;;17.80;;
65045;SDS011;54657;52.022;5.534;2022-12-01T16:31:50;30.58;;;16.98;;
65045;SDS011;54657;52.022;5.534;2022-12-01T16:34:18;36.50;;;17.42;;
65045;SDS011;54657;52.022;5.534;2022-12-01T16:36:45;34.35;;;17.92;;
65045;SDS011;54657;52.022;5.534;2022-12-01T16:39:11;34.03;;;17.05;;
65045;SDS011;54657;52.022;5.534;2022-12-01T16:41:38;33.42;;;17.33;;
65045;SDS011;54657;52.022;5.534;2022-12-01T16:44:09;33.22;;;16.95;;
65045;SDS011;54657;52.022;5.534;2022-12-01T16:46:35;32.97;;;17.80;;
65045;SDS011;54657;52.022;5.534;2022-12-01T16:49:01;30.50;;;17.63;;
65045;SDS011;54657;52.022;5.534;2022-12-01T16:51:27;31.55;;;17.08;;
65045;SDS011;54657;52.022;5.534;2022-12-01T16:53:52;34.25;;;17.65;;
65045;SDS011;54657;52.022;5.534;2022-12-01T16:56:18;32.67;;;17.83;;
65045;SDS011;54657;52.022;5.534;2022-12-01T16:58:44;33.58;;;17.65;;
65045;SDS011;54657;52.022;5.534;2022-12-01T17:01:09;33.97;;;17.65;;
65045;SDS011;54657;52.022;5.534;2022-12-01T17:03:35;32.83;;;17.45;;
65045;SDS011;54657;52.022;5.534;2022-12-01T17:06:04;31.00;;;17.15;;
65045;SDS011;54657;52.022;5.534;2022-12-01T17:08:30;34.92;;;17.33;;
65045;SDS011;54657;52.022;5.534;2022-12-01T17:10:55;35.40;;;16.77;;
65045;SDS011;54657;52.022;5.534;2022-12-01T17:13:21;36.67;;;18.65;;
65045;SDS011;54657;52.022;5.534;2022-12-01T17:15:48;35.10;;;18.25;;
65045;SDS011;54657;52.022;5.534;2022-12-01T17:18:16;31.58;;;17.27;;